Louisville, NE

11:24 PM CDT on March 26, 2015 (GMT -0500)
Southridge | | Change Station
CLOSE
Current Station
Personal Weather Station
Location: Louisville, NE
Elevation: 1083 ft
Nearby Weather Stations

Elev 1083 ft 40.99 °N, 96.15 °W | Updated 31 seconds ago

Partly Cloudy
Partly Cloudy
33.1 °F
Feels Like 33 °F
N
0.0
Wind Variable Wind from North
Gusts 6.0 mph

Today
High -- | Low -- °F
--% Chance of Precip.
Yesterday
High -- | Low -- °F
Precip. -- in
7:18 AM 7:42 PM
Waxing Crescent, 49% visible
Pressure 30.20 in
Visibility 7.0 miles
Clouds Scattered Clouds 3300 ft
Scattered Clouds 8000 ft
Windchill 33 °F
Dew Point 30 °F
Humidity 90%
Rainfall 0.05 in
Snow Depth Not available.
UV 0 out of 12
Pollen 6.90 out of 12
Air Quality Not available.
Flu Activity Not available.
METAR KPMV 270415Z AUTO 32004KT 7SM SCT033 SCT080 00/M01 A3020 RMK AO2 T00001010

More Conditions Fewer Conditions

Pressure 30.20 in
Visibility 7.0 miles
Clouds Scattered Clouds 3300 ft
Scattered Clouds 8000 ft
Windchill 33 °F
Dew Point 30 °F
Humidity 90%
Rainfall 0.05 in
Snow Depth Not available.
UV 0 out of 12
Pollen 6.90 out of 12
Air Quality Not available.
Flu Activity Not available.
METAR KPMV 270415Z AUTO 32004KT 7SM SCT033 SCT080 00/M01 A3020 RMK AO2 T00001010

More Conditions Fewer Conditions

10-Day Weather Forecast

Almanac

Astronomy

Mar. 26, 2015 Rise Set
Actual Time
Civil Twilight
Nautical Twilight
Astronomical Twilight
Moon
Length of Visible Light
Length of Day
Tomorrow will be .
, % of the Moon is Illuminated

Today's Extremes

State Highs State Lows

Community

WunderPhotos

Upload Photos

1,808,706 photos uploaded!

WunderBlogs® & News

Nearby

Air Quality

  Air Quality AQ Index Pollutant
Not available.

Snow Depth

Station Depth Elevation

Earthquake Activity

City Distance Mag. Time & Date
Minimum magnitude displayed is 2.5.

Coastal Water Temperatures

Place Temperature

Stations

Nearby Weather Stations

Station Location Temp. Windchill Dew Point Humidity Wind Precip. Elev Updated Type